Terminal Aerodrome Forecast
Issued by NWS

Home | Current Version | Previous Version | Text Only | Print | Product List | Glossary On
Versions: 1 2 3 4 5 6 7 8 9 10 11 12 13 14 15 16
000
FTUS45 KRIW 301839 AAA
TAFCOD
TAF AMD
KCOD 301839Z 3019/0118 VRB09G17KT P6SM VCTS SCT050CB BKN070
     FM010300 VRB05KT P6SM BKN100
     FM010800 VRB04KT P6SM FEW110
      AMD LTD TO CLD VIS AND WIND=

USA.gov is the U.S. government's official web portal to all federal, state and local government web resources and services.